createdAt,value
2022-09-12T00:01:22.399Z,0.50
2022-09-12T00:03:54.502Z,0.60
2022-09-12T00:06:28.429Z,0.70
2022-09-12T00:08:59.982Z,0.67
2022-09-12T00:11:28.100Z,0.70
2022-09-12T00:13:58.301Z,0.50
2022-09-12T00:16:28.234Z,0.50
2022-09-12T00:18:56.291Z,0.70
2022-09-12T00:21:24.127Z,0.70
2022-09-12T00:23:51.797Z,0.60
2022-09-12T00:26:21.042Z,0.65
2022-09-12T00:28:49.192Z,0.90
2022-09-12T00:31:19.763Z,0.50
2022-09-12T00:33:47.707Z,0.70
2022-09-12T00:36:25.685Z,0.80
2022-09-12T00:38:54.741Z,0.80
2022-09-12T00:41:34.822Z,0.47
2022-09-12T00:44:10.695Z,0.80
2022-09-12T00:46:46.268Z,0.50
2022-09-12T00:49:38.977Z,0.93
2022-09-12T00:52:16.727Z,0.90
2022-09-12T00:55:02.897Z,1.05
2022-09-12T00:57:34.908Z,0.90
2022-09-12T01:00:15.420Z,0.87
2022-09-12T01:02:45.451Z,0.90
2022-09-12T01:05:13.937Z,0.90
2022-09-12T01:07:42.591Z,0.85
2022-09-12T01:10:10.620Z,0.90
2022-09-12T01:12:41.271Z,1.10
2022-09-12T01:15:10.212Z,1.05
2022-09-12T01:17:57.959Z,1.05
2022-09-12T01:20:44.044Z,1.00
2022-09-12T01:23:43.894Z,1.23
2022-09-12T01:26:58.926Z,0.83
2022-09-12T01:29:51.251Z,1.15
2022-09-12T01:32:26.498Z,0.90
2022-09-12T01:34:58.747Z,0.75
2022-09-12T01:37:48.987Z,1.10
2022-09-12T01:40:27.250Z,1.33
2022-09-12T01:43:18.445Z,1.35
2022-09-12T01:46:01.094Z,0.95
2022-09-12T01:48:36.059Z,1.48
2022-09-12T01:51:13.751Z,1.60
2022-09-12T01:53:53.244Z,1.27
2022-09-12T01:56:26.570Z,1.37
2022-09-12T01:59:05.138Z,1.87
2022-09-12T02:01:36.184Z,1.52
2022-09-12T02:04:10.812Z,1.55
2022-09-12T02:06:52.895Z,2.00
2022-09-12T02:09:34.407Z,1.60
2022-09-12T02:12:03.978Z,2.00
2022-09-12T02:14:36.908Z,1.73
2022-09-12T02:17:11.943Z,1.85
2022-09-12T02:19:49.364Z,1.90
2022-09-12T02:22:20.541Z,2.37
2022-09-12T02:24:52.630Z,1.83
2022-09-12T02:27:22.658Z,2.08
2022-09-12T02:29:51.105Z,1.98
2022-09-12T02:32:33.249Z,2.30
2022-09-12T02:35:07.249Z,2.35
2022-09-12T02:37:49.393Z,2.90
2022-09-12T02:40:18.594Z,2.72
2022-09-12T02:42:46.371Z,2.65
2022-09-12T02:45:13.851Z,2.63
2022-09-12T02:47:50.217Z,2.80
2022-09-12T02:50:18.080Z,2.90
2022-09-12T02:52:46.646Z,2.67
2022-09-12T02:55:14.896Z,3.10
2022-09-12T02:57:42.416Z,2.40
2022-09-12T03:00:10.701Z,2.83
2022-09-12T03:02:47.308Z,2.87
2022-09-12T03:05:38.024Z,2.70
2022-09-12T03:08:33.581Z,2.60
2022-09-12T03:11:22.950Z,3.00
2022-09-12T03:14:10.153Z,3.10
2022-09-12T03:17:02.767Z,3.40
2022-09-12T03:19:45.609Z,3.00
2022-09-12T03:22:29.152Z,3.10
2022-09-12T03:25:12.994Z,3.00
2022-09-12T03:28:07.441Z,3.10
2022-09-12T03:30:43.368Z,3.25
2022-09-12T03:33:16.080Z,2.90
2022-09-12T03:35:43.982Z,3.17
2022-09-12T03:38:11.687Z,3.13
2022-09-12T03:40:39.672Z,3.15
2022-09-12T03:43:08.688Z,3.10
2022-09-12T03:45:37.467Z,2.55
2022-09-12T03:48:07.026Z,2.80
2022-09-12T03:50:34.666Z,2.97
2022-09-12T03:53:03.783Z,2.55
2022-09-12T03:55:31.313Z,3.10
2022-09-12T03:57:58.765Z,3.33
2022-09-12T04:00:26.504Z,2.92
2022-09-12T04:02:56.234Z,3.30
2022-09-12T04:05:24.590Z,3.45
2022-09-12T04:07:52.129Z,3.35
2022-09-12T04:10:19.946Z,3.50
2022-09-12T04:12:47.357Z,3.20
2022-09-12T04:15:14.867Z,3.50
2022-09-12T04:17:42.938Z,3.53
2022-09-12T04:20:10.856Z,3.45
2022-09-12T04:22:38.253Z,3.40
2022-09-12T04:25:06.673Z,3.87
2022-09-12T04:27:34.076Z,4.20
2022-09-12T04:30:02.450Z,4.28
2022-09-12T04:32:31.329Z,4.35
2022-09-12T04:34:58.770Z,4.12
2022-09-12T04:37:26.253Z,3.95
2022-09-12T04:39:57.921Z,4.50
2022-09-12T04:42:25.525Z,4.80
2022-09-12T04:44:52.943Z,4.35
2022-09-12T04:47:20.748Z,4.10
2022-09-12T04:49:51.174Z,4.57
2022-09-12T04:52:18.589Z,4.17
2022-09-12T04:54:46.282Z,4.45
2022-09-12T04:57:13.685Z,4.10
2022-09-12T04:59:41.160Z,4.85
2022-09-12T05:02:08.901Z,4.25
2022-09-12T05:04:36.377Z,4.00
2022-09-12T05:07:03.948Z,4.45
2022-09-12T05:09:31.981Z,4.05
2022-09-12T05:12:04.161Z,4.87
2022-09-12T05:14:33.213Z,4.50
2022-09-12T05:17:01.796Z,4.80
2022-09-12T05:19:31.026Z,4.93
2022-09-12T05:21:59.628Z,4.40
2022-09-12T05:24:27.102Z,4.90
2022-09-12T05:26:54.572Z,4.62
2022-09-12T05:29:22.256Z,4.37
2022-09-12T05:31:52.112Z,4.97
2022-09-12T05:34:21.123Z,3.90
2022-09-12T05:36:49.196Z,4.03
2022-09-12T05:39:16.817Z,4.30
2022-09-12T05:41:44.380Z,4.47
2022-09-12T05:44:14.276Z,4.28
2022-09-12T05:46:44.389Z,5.00
2022-09-12T05:49:13.663Z,4.35
2022-09-12T05:51:44.484Z,4.90
2022-09-12T05:54:14.544Z,4.93
2022-09-12T05:56:44.049Z,4.82
2022-09-12T05:59:15.411Z,4.72
2022-09-12T06:01:43.323Z,4.18
2022-09-12T06:04:12.138Z,3.97
2022-09-12T06:06:47.414Z,4.63
2022-09-12T06:09:16.603Z,4.40
2022-09-12T06:11:46.451Z,4.05
2022-09-12T06:14:15.555Z,4.00
2022-09-12T06:16:43.524Z,4.00
2022-09-12T06:19:19.589Z,3.50
2022-09-12T06:21:49.591Z,3.42
2022-09-12T06:24:18.729Z,3.92
2022-09-12T06:26:47.551Z,3.10
2022-09-12T06:29:15.779Z,3.95
2022-09-12T06:31:44.100Z,3.40
2022-09-12T06:34:14.666Z,3.20
2022-09-12T06:36:48.100Z,3.03
2022-09-12T06:39:18.299Z,3.60
2022-09-12T06:41:46.234Z,3.50
2022-09-12T06:44:19.401Z,3.00
2022-09-12T06:46:47.290Z,3.17
2022-09-12T06:49:14.979Z,3.40
2022-09-12T06:51:42.768Z,3.33
2022-09-12T06:54:14.119Z,3.12
2022-09-12T06:56:41.684Z,3.40
2022-09-12T06:59:09.287Z,3.20
2022-09-12T07:01:37.360Z,2.47
2022-09-12T07:04:05.318Z,3.17
2022-09-12T07:06:38.329Z,2.87
2022-09-12T07:09:08.181Z,2.77
2022-09-12T07:11:38.105Z,3.05
2022-09-12T07:14:07.600Z,2.92
2022-09-12T07:16:36.768Z,3.47
2022-09-12T07:19:06.612Z,2.92
2022-09-12T07:21:39.763Z,2.80
2022-09-12T07:24:10.257Z,2.53
2022-09-12T07:26:40.225Z,2.70
2022-09-12T07:29:35.283Z,2.47
2022-09-12T07:32:01.858Z,2.67
2022-09-12T07:34:29.259Z,3.23
2022-09-12T07:36:56.648Z,2.90
2022-09-12T07:39:24.385Z,2.80
2022-09-12T07:41:51.764Z,2.40
2022-09-12T07:44:19.163Z,2.92
2022-09-12T07:46:46.941Z,3.00
2022-09-12T07:49:14.415Z,2.85
2022-09-12T07:51:41.807Z,3.20
2022-09-12T07:54:10.033Z,2.83
2022-09-12T07:56:39.453Z,2.67
2022-09-12T07:59:08.862Z,2.77
2022-09-12T08:01:36.630Z,2.70
2022-09-12T08:04:05.292Z,2.58
2022-09-12T08:06:35.917Z,3.00
2022-09-12T08:09:05.451Z,2.92
2022-09-12T08:11:32.880Z,2.63
2022-09-12T08:14:02.995Z,3.20
2022-09-12T08:16:31.898Z,2.72
2022-09-12T08:19:02.291Z,3.15
2022-09-12T08:21:31.971Z,2.90
2022-09-12T08:24:05.949Z,2.10
2022-09-12T08:26:34.867Z,2.75
2022-09-12T08:29:02.602Z,2.92
2022-09-12T08:31:36.375Z,2.83
2022-09-12T08:34:05.718Z,2.75
2022-09-12T08:36:34.014Z,2.70
2022-09-12T08:39:04.674Z,2.60
2022-09-12T08:41:40.709Z,2.87
2022-09-12T08:44:08.882Z,2.40
2022-09-12T08:46:57.290Z,2.92
2022-09-12T08:49:33.745Z,2.40
2022-09-12T08:52:15.650Z,2.70
2022-09-12T08:54:45.592Z,2.70
2022-09-12T08:57:15.615Z,2.83
2022-09-12T08:59:48.393Z,2.53
2022-09-12T09:02:53.876Z,2.47
2022-09-12T09:05:40.133Z,3.00
2022-09-12T09:08:30.023Z,2.35
2022-09-12T09:11:24.743Z,2.47
2022-09-12T09:14:33.416Z,2.80
2022-09-12T09:17:02.125Z,2.40
2022-09-12T09:19:40.927Z,2.50
2022-09-12T09:22:15.967Z,2.47
2022-09-12T09:24:49.382Z,2.78
2022-09-12T09:27:39.935Z,3.00
2022-09-12T09:30:15.789Z,2.27
2022-09-12T09:32:47.882Z,2.85
2022-09-12T09:35:18.919Z,2.78
2022-09-12T09:38:06.759Z,2.30
2022-09-12T09:40:57.658Z,2.55
2022-09-12T09:43:29.199Z,3.07
2022-09-12T09:46:01.981Z,2.83
2022-09-12T09:48:37.710Z,2.90
2022-09-12T09:51:08.055Z,3.17
2022-09-12T09:54:17.389Z,2.83
2022-09-12T09:56:45.664Z,3.03
2022-09-12T09:59:20.184Z,2.97
2022-09-12T10:01:53.820Z,2.60
2022-09-12T10:04:26.757Z,2.58
2022-09-12T10:06:57.063Z,2.90
2022-09-12T10:09:27.770Z,2.50
2022-09-12T10:11:56.823Z,2.87
2022-09-12T10:14:30.844Z,2.47
2022-09-12T10:16:59.659Z,3.00
2022-09-12T10:19:42.850Z,2.87
2022-09-12T10:22:18.278Z,3.07
2022-09-12T10:24:52.476Z,3.12
2022-09-12T10:27:26.077Z,3.35
2022-09-12T10:30:06.800Z,2.90
2022-09-12T10:32:40.981Z,2.70
2022-09-12T10:35:28.503Z,2.97
2022-09-12T10:38:03.295Z,2.97
2022-09-12T10:40:40.119Z,2.72
2022-09-12T10:43:24.236Z,2.70
2022-09-12T10:45:52.054Z,3.00
2022-09-12T10:48:28.899Z,2.80
2022-09-12T10:50:58.112Z,2.80
2022-09-12T10:53:40.896Z,2.90
2022-09-12T10:56:17.775Z,2.50
2022-09-12T10:58:54.468Z,2.75
2022-09-12T11:01:21.883Z,2.80
2022-09-12T11:04:08.099Z,3.20
2022-09-12T11:06:58.610Z,3.00
2022-09-12T11:10:11.727Z,2.28
2022-09-12T11:12:49.712Z,2.25
2022-09-12T11:15:54.951Z,2.90
2022-09-12T11:18:53.963Z,2.50
2022-09-12T11:21:59.057Z,2.30
2022-09-12T11:24:37.719Z,2.75
2022-09-12T11:27:25.562Z,2.50
2022-09-12T11:29:59.417Z,2.90
2022-09-12T11:32:49.306Z,2.72
2022-09-12T11:35:31.037Z,2.58
2022-09-12T11:38:43.196Z,2.12
2022-09-12T11:41:19.037Z,2.40
2022-09-12T11:43:49.579Z,2.27
2022-09-12T11:46:25.773Z,2.80
2022-09-12T11:49:14.032Z,2.78
2022-09-12T11:51:48.322Z,2.22
2022-09-12T11:54:25.107Z,2.50
2022-09-12T11:57:21.089Z,2.27
2022-09-12T11:59:51.500Z,2.70
2022-09-12T12:02:48.327Z,2.12
2022-09-12T12:05:31.747Z,2.92
2022-09-12T12:08:01.905Z,2.33
2022-09-12T12:10:32.359Z,2.60
2022-09-12T12:13:03.253Z,2.22
2022-09-12T12:15:31.918Z,2.95
2022-09-12T12:18:06.152Z,2.50
2022-09-12T12:20:34.075Z,2.80
2022-09-12T12:23:01.571Z,2.70
2022-09-12T12:25:51.832Z,2.33
2022-09-12T12:28:41.370Z,2.25
2022-09-12T12:31:10.626Z,2.40
2022-09-12T12:33:38.406Z,2.87
2022-09-12T12:36:09.557Z,2.57
2022-09-12T12:38:39.245Z,2.37
2022-09-12T12:41:19.278Z,2.25
2022-09-12T12:43:51.943Z,2.40
2022-09-12T12:46:25.744Z,2.70
2022-09-12T12:49:24.507Z,2.80
2022-09-12T12:51:59.079Z,2.55
2022-09-12T12:54:34.032Z,2.58
2022-09-12T12:57:03.143Z,2.45
2022-09-12T12:59:31.269Z,2.35
2022-09-12T13:02:00.082Z,2.40
2022-09-12T13:04:32.658Z,2.30
2022-09-12T13:07:08.335Z,2.53
2022-09-12T13:09:46.819Z,2.20
2022-09-12T13:12:25.105Z,2.45
2022-09-12T13:14:59.388Z,2.43
2022-09-12T13:17:41.471Z,2.55
2022-09-12T13:20:29.954Z,2.10
2022-09-12T13:22:58.415Z,2.40
2022-09-12T13:25:33.360Z,2.75
2022-09-12T13:28:18.529Z,2.10
2022-09-12T13:30:56.342Z,2.35
2022-09-12T13:33:42.326Z,2.12
2022-09-12T13:36:22.257Z,2.53
2022-09-12T13:39:13.820Z,1.95
2022-09-12T13:41:44.283Z,2.40
2022-09-12T13:44:15.680Z,2.35
2022-09-12T13:46:44.287Z,2.72
2022-09-12T13:49:22.789Z,2.37
2022-09-12T13:52:01.959Z,2.70
2022-09-12T13:54:30.868Z,2.70
2022-09-12T13:56:59.849Z,2.20
2022-09-12T13:59:27.479Z,2.30
2022-09-12T14:01:54.952Z,2.75
2022-09-12T14:04:43.968Z,2.35
2022-09-12T14:07:22.230Z,2.37
2022-09-12T14:09:56.843Z,2.45
2022-09-12T14:12:25.836Z,2.47
2022-09-12T14:14:54.028Z,2.70
2022-09-12T14:17:31.595Z,2.47
2022-09-12T14:20:11.824Z,2.30
2022-09-12T14:22:40.864Z,2.42
2022-09-12T14:25:16.329Z,2.30
2022-09-12T14:27:50.812Z,2.90
2022-09-12T14:30:24.335Z,2.30
2022-09-12T14:33:09.913Z,2.50
2022-09-12T14:35:43.399Z,2.58
2022-09-12T14:38:21.880Z,2.50
2022-09-12T14:40:53.801Z,2.60
2022-09-12T14:43:26.721Z,2.78
2022-09-12T14:46:15.957Z,2.00
2022-09-12T14:49:14.756Z,2.47
2022-09-12T14:52:22.352Z,2.25
2022-09-12T14:55:00.863Z,2.50
2022-09-12T14:57:31.217Z,2.50
2022-09-12T15:00:13.888Z,2.00
2022-09-12T15:02:44.969Z,2.15
2022-09-12T15:05:12.320Z,2.30
2022-09-12T15:07:53.906Z,2.35
2022-09-12T15:10:35.220Z,2.20
2022-09-12T15:13:05.663Z,2.40
2022-09-12T15:15:33.406Z,2.15
2022-09-12T15:18:05.794Z,2.40
2022-09-12T15:20:37.684Z,2.22
2022-09-12T15:23:08.417Z,2.60
2022-09-12T15:25:36.131Z,2.40
2022-09-12T15:28:15.380Z,2.33
2022-09-12T15:30:43.204Z,2.50
2022-09-12T15:33:12.026Z,2.25
2022-09-12T15:35:39.521Z,1.90
2022-09-12T15:38:07.423Z,2.10
2022-09-12T15:40:34.849Z,2.10
2022-09-12T15:43:03.056Z,2.25
2022-09-12T15:45:33.585Z,2.10
2022-09-12T15:48:02.779Z,2.20
2022-09-12T15:50:31.019Z,1.77
2022-09-12T15:52:58.777Z,2.30
2022-09-12T15:55:32.482Z,2.08
2022-09-12T15:58:04.832Z,2.08
2022-09-12T16:00:34.466Z,2.50
2022-09-12T16:03:02.292Z,2.30
2022-09-12T16:05:29.770Z,2.30
2022-09-12T16:07:57.171Z,2.10
2022-09-12T16:10:28.979Z,2.22
2022-09-12T16:12:56.822Z,2.10
2022-09-12T16:15:25.967Z,2.30
2022-09-12T16:17:53.999Z,2.33
2022-09-12T16:20:22.323Z,2.03
2022-09-12T16:22:49.696Z,1.85
2022-09-12T16:25:18.231Z,2.15
2022-09-12T16:27:46.642Z,2.30
2022-09-12T16:30:15.871Z,1.87
2022-09-12T16:32:43.557Z,2.25
2022-09-12T16:35:10.966Z,1.83
2022-09-12T16:37:38.564Z,2.25
2022-09-12T16:40:07.296Z,1.70
2022-09-12T16:42:35.800Z,2.25
2022-09-12T16:45:03.431Z,1.90
2022-09-12T16:47:32.297Z,2.50
2022-09-12T16:49:59.695Z,2.00
2022-09-12T16:52:27.411Z,1.90
2022-09-12T16:54:55.093Z,1.60
2022-09-12T16:57:23.426Z,2.55
2022-09-12T16:59:50.911Z,1.98
2022-09-12T17:02:18.641Z,1.83
2022-09-12T17:04:46.256Z,2.40
2022-09-12T17:07:13.653Z,2.35
2022-09-12T17:09:43.321Z,2.12
2022-09-12T17:12:13.645Z,2.20
2022-09-12T17:14:41.283Z,2.10
2022-09-12T17:17:08.732Z,2.00
2022-09-12T17:19:36.161Z,5.53
2022-09-12T17:22:03.906Z,3.90
2022-09-12T17:24:31.435Z,2.15
2022-09-12T17:26:59.432Z,2.00
2022-09-12T17:29:27.560Z,2.37
2022-09-12T17:31:55.754Z,2.00
2022-09-12T17:34:23.515Z,2.90
2022-09-12T17:36:51.290Z,2.87
2022-09-12T17:39:18.823Z,1.77
2022-09-12T17:41:46.292Z,1.73
2022-09-12T17:44:15.185Z,2.00
2022-09-12T17:46:43.151Z,2.22
2022-09-12T17:49:15.830Z,2.10
2022-09-12T17:51:44.520Z,1.95
2022-09-12T17:54:15.780Z,2.07
2022-09-12T17:56:46.598Z,2.42
2022-09-12T17:59:17.302Z,1.65
2022-09-12T18:02:04.069Z,1.77
2022-09-12T18:04:31.924Z,2.00
2022-09-12T18:07:00.468Z,2.30
2022-09-12T18:09:28.450Z,2.03
2022-09-12T18:11:56.399Z,1.90
2022-09-12T18:14:24.154Z,1.92
2022-09-12T18:16:52.457Z,2.03
2022-09-12T18:19:20.464Z,1.90
2022-09-12T18:21:49.675Z,1.90
2022-09-12T18:24:17.947Z,1.87
2022-09-12T18:26:45.761Z,1.85
2022-09-12T18:29:16.891Z,2.00
2022-09-12T18:31:44.483Z,1.70
2022-09-12T18:34:13.836Z,1.60
2022-09-12T18:36:44.523Z,1.73
2022-09-12T18:39:12.825Z,2.35
2022-09-12T18:41:41.007Z,2.22
2022-09-12T18:44:11.556Z,1.73
2022-09-12T18:46:39.474Z,2.00
2022-09-12T18:49:07.822Z,2.08
2022-09-12T18:51:36.895Z,1.60
2022-09-12T18:54:08.765Z,1.65
2022-09-12T18:56:38.321Z,1.87
2022-09-12T18:59:07.166Z,2.47
2022-09-12T19:01:37.045Z,2.00
2022-09-12T19:04:06.537Z,1.80
2022-09-12T19:06:37.710Z,1.55
2022-09-12T19:09:08.181Z,2.20
2022-09-12T19:11:38.612Z,2.00
2022-09-12T19:14:07.529Z,1.85
2022-09-12T19:16:35.475Z,1.60
2022-09-12T19:19:03.777Z,1.87
2022-09-12T19:21:32.948Z,2.20
2022-09-12T19:24:04.126Z,2.30
2022-09-12T19:26:33.067Z,1.92
2022-09-12T19:29:02.986Z,2.10
2022-09-12T19:31:31.353Z,1.58
2022-09-12T19:34:04.520Z,2.23
2022-09-12T19:36:47.772Z,2.28
2022-09-12T19:39:17.432Z,1.77
2022-09-12T19:41:45.554Z,1.73
2022-09-12T19:44:13.396Z,1.90
2022-09-12T19:46:41.163Z,1.50
2022-09-12T19:49:10.320Z,1.70
2022-09-12T19:51:37.892Z,2.05
2022-09-12T19:54:06.248Z,1.60
2022-09-12T19:56:33.644Z,1.95
2022-09-12T19:59:01.036Z,1.93
2022-09-12T20:01:29.062Z,2.17
2022-09-12T20:03:58.260Z,2.05
2022-09-12T20:06:26.863Z,2.17
2022-09-12T20:08:55.069Z,2.12
2022-09-12T20:11:25.617Z,1.93
2022-09-12T20:13:53.588Z,1.75
2022-09-12T20:16:26.599Z,1.90
2022-09-12T20:18:59.673Z,1.92
2022-09-12T20:21:32.397Z,1.98
2022-09-12T20:24:12.602Z,2.40
2022-09-12T20:26:40.920Z,1.95
2022-09-12T20:29:10.573Z,1.90
2022-09-12T20:31:39.980Z,2.12
2022-09-12T20:34:12.546Z,1.90
2022-09-12T20:36:40.250Z,1.80
2022-09-12T20:39:07.752Z,2.28
2022-09-12T20:41:36.142Z,1.60
2022-09-12T20:44:04.081Z,2.10
2022-09-12T20:46:31.572Z,2.10
2022-09-12T20:48:59.227Z,2.30
2022-09-12T20:51:29.683Z,1.90
2022-09-12T20:54:02.032Z,1.73
2022-09-12T20:56:31.776Z,1.70
2022-09-12T20:59:00.006Z,2.15
2022-09-12T21:01:29.422Z,2.13
2022-09-12T21:03:57.646Z,2.12
2022-09-12T21:06:25.064Z,1.52
2022-09-12T21:08:53.229Z,1.73
2022-09-12T21:11:21.137Z,1.67
2022-09-12T21:13:48.673Z,2.13
2022-09-12T21:16:19.506Z,2.35
2022-09-12T21:18:52.771Z,1.77
2022-09-12T21:21:20.988Z,2.03
2022-09-12T21:23:50.683Z,2.35
2022-09-12T21:26:18.709Z,1.90
2022-09-12T21:28:46.140Z,1.90
2022-09-12T21:31:13.903Z,2.55
2022-09-12T21:33:41.327Z,2.12
2022-09-12T21:36:09.700Z,1.80
2022-09-12T21:38:37.547Z,2.03
2022-09-12T21:41:06.284Z,1.85
2022-09-12T21:43:34.185Z,1.70
2022-09-12T21:46:02.184Z,1.92
2022-09-12T21:48:30.099Z,2.33
2022-09-12T21:50:57.580Z,2.10
2022-09-12T21:53:25.607Z,1.95
2022-09-12T21:55:52.999Z,2.17
2022-09-12T21:58:20.426Z,1.55
2022-09-12T22:00:48.185Z,1.73
2022-09-12T22:03:17.148Z,2.10
2022-09-12T22:05:44.606Z,2.08
2022-09-12T22:08:12.126Z,2.12
2022-09-12T22:10:40.304Z,2.22
2022-09-12T22:13:08.171Z,1.92
2022-09-12T22:15:40.539Z,2.43
2022-09-12T22:18:08.856Z,1.90
2022-09-12T22:20:36.688Z,2.10
2022-09-12T22:23:25.063Z,2.08
2022-09-12T22:25:56.742Z,1.90
2022-09-12T22:28:25.192Z,1.73
2022-09-12T22:30:54.751Z,1.98
2022-09-12T22:33:22.275Z,1.90
2022-09-12T22:35:49.653Z,1.60
2022-09-12T22:38:17.357Z,2.00
2022-09-12T22:40:44.814Z,2.20
2022-09-12T22:43:12.499Z,1.92
2022-09-12T22:45:43.081Z,1.75
2022-09-12T22:48:10.541Z,1.95
2022-09-12T22:50:37.990Z,1.67
2022-09-12T22:53:05.711Z,2.20
2022-09-12T22:55:33.263Z,1.95
2022-09-12T22:58:00.876Z,1.75
2022-09-12T23:00:29.769Z,2.00
2022-09-12T23:02:58.408Z,1.80
2022-09-12T23:05:25.873Z,2.13
2022-09-12T23:07:53.590Z,1.80
2022-09-12T23:10:21.456Z,1.98
2022-09-12T23:12:49.853Z,2.20
2022-09-12T23:15:17.535Z,2.33
2022-09-12T23:17:45.015Z,2.00
2022-09-12T23:20:12.546Z,2.03
2022-09-12T23:22:40.233Z,1.62
2022-09-12T23:25:08.073Z,2.08
2022-09-12T23:27:35.497Z,2.22
2022-09-12T23:30:03.520Z,1.90
2022-09-12T23:32:31.234Z,2.03
2022-09-12T23:34:59.070Z,1.73
2022-09-12T23:37:27.006Z,1.90
2022-09-12T23:39:54.409Z,1.65
2022-09-12T23:42:22.177Z,1.87
2022-09-12T23:44:49.855Z,2.20
2022-09-12T23:47:18.471Z,2.28
2022-09-12T23:49:45.931Z,2.00
2022-09-12T23:52:13.681Z,2.28
2022-09-12T23:54:41.168Z,2.10
2022-09-12T23:57:08.631Z,2.67
2022-09-12T23:59:36.309Z,2.30
